Airfield :
LOGIN :

Register | Disclaimer

   EN    FR    IT 

 










Legend :    VFR   Marginal VFR   IFR   Intensive IFR   Very Intensive IFR
Visi :
Ceiling :
>= 8 km
>= 3000ft
5 to 8 km
1000 to 3000 ft
1500m to 5 km
500 to 1000 ft
800 to 1500m
200 to 500 ft
< 800m
< 200 ft
Symbols :   Thunderstorms  Fog  Heavy snow  Heavy precipitations  Wind > 20 kt
SIGMETs :     Misc.  Thunderstorms  Icing  Turbulence  Mountain Waves  Volcanic Ashes






- Airport Elevation : 247 ft
- IATA code : BLL


EKBI - Billund

CURRENT METAR :
  • 071420Z AUTO 29011KT 270V330 9999 NCD 15/M02 Q1032

EXPIRED METARs :
  • 071350Z AUTO 28010KT 250V310 9999 NCD 15/M02 Q1032
  • 071320Z AUTO 28011KT 260V320 9999 NCD 15/M01 Q1032
  • 071250Z AUTO 27012KT 9999 NCD 15/M00 Q1032
  • 071220Z AUTO 27010KT 230V330 9999 NCD 15/02 Q1032
  • 071150Z AUTO 28010KT 240V330 9999 NCD 15/01 Q1032
  • 071120Z AUTO 29011KT 250V320 9999 NCD 14/03 Q1032

TAF TAF EKBI
Valid from the 07 at 12:00 until the 08 at 12:00 UTC


071057Z 0712/0812 30012KT CAVOK
TEMPO 0712/0715 29015G25KT
BECMG 0715/0718 VRB03KT
BECMG 0803/0806 16010KT



MET'MAP, your aeronautical weather chart ! - Copyright ORBIFLY December 2007 - Disclaimer

ORBIFLY MET'MAP TEAM :

Programming & Development : Alexandra Zaïnal
Concept & original design : Baudouin d'Aumeries
Assistance for programming : Marc-Olivier Méhu
Technical & hardware support : Manuel Goepfert

Contact : metmap@orbifly.com




SOURCES & CREDITS :

   NOAA